Arab, AL

7:56 AM CST on February 28, 2015 (GMT -0600)
APRSWXNET Arab AL US | Change Station
CLOSE
Current Station
Personal Weather Station
Location: Arab, AL
Elevation: 1105 ft
Nearby Weather Stations

Elev 1105 ft 34.32 °N, 86.49 °W | Updated 33 minutes ago

Mostly Cloudy
Mostly Cloudy
31 °F
Feels Like 31 °F
N
0
Wind Variable Wind from NNW
Gusts 3.0 mph

Today
High -- | Low -- °F
--% Chance of Precip.
Yesterday
High -- | Low -- °F
Precip. -- in
6:16 AM 5:41 PM
Waxing Gibbous, 77% visible
Pressure 30.50 in
Visibility 10.0 miles
Clouds Clear
Windchill 31 °F
Dew Point 23 °F
Humidity 71%
Rainfall 0.03 in
Snow Depth Not available.
UV 1 out of 12
Pollen 5.90 out of 12
Air Quality Not available.
Flu Activity Not available.
METAR K8A0 281335Z AUTO 09005KT 10SM CLR 00/M03 A3050 RMK AO2

More Conditions Fewer Conditions

Pressure 30.50 in
Visibility 10.0 miles
Clouds Clear
Windchill 31 °F
Dew Point 23 °F
Humidity 71%
Rainfall 0.03 in
Snow Depth Not available.
UV 1 out of 12
Pollen 5.90 out of 12
Air Quality Not available.
Flu Activity Not available.
METAR K8A0 281335Z AUTO 09005KT 10SM CLR 00/M03 A3050 RMK AO2

More Conditions Fewer Conditions

10-Day Weather Forecast

Almanac

Astronomy

Feb. 28, 2015 Rise Set
Actual Time
Civil Twilight
Nautical Twilight
Astronomical Twilight
Moon
Length of Visible Light
Length of Day
Tomorrow will be .
, % of the Moon is Illuminated

Today's Extremes

State Highs State Lows

Community

WunderPhotos

Upload Photos

1,801,014 photos uploaded!

WunderBlogs® & News

Nearby

Air Quality

  Air Quality AQ Index Pollutant
Not available.

Snow Depth

Station Depth Elevation

Earthquake Activity

City Distance Mag. Time & Date
Minimum magnitude displayed is 2.5.

Coastal Water Temperatures

Place Temperature

Nearby Weather Stations